Time;durP1;ratioP1;P1;durP2;ratioP2;P2;SDS_P1;SDS_P2;PMS_P1;PMS_P2;Temp;Humidity;BMP_temperature;BMP_pressure;BME280_temperature;BME280_humidity;BME280_pressure;Samples;Min_cycle;Max_cycle;Signal;HPM_P1;HPM_P2
2022/07/09 00:02:20;;;;;;;;;;;;;;;25.15;100.00;100123.22;5054846;28;19921;-55
2022/07/09 00:04:46;;;;;;;;;;;;;;;25.08;100.00;100114.94;5050855;28;19931;-55
2022/07/09 00:07:11;;;;;;;;;;;;;;;25.35;100.00;100113.84;5056237;28;19920;-55
2022/07/09 00:09:36;;;;;;;;;;;;;;;25.37;100.00;100110.13;5054296;28;19931;-55
2022/07/09 00:12:01;;;;;;;;;;;;;;;25.14;100.00;100108.38;5056526;28;19920;-55
2022/07/09 00:14:27;;;;;;;;;;;;;;;25.08;100.00;100106.19;5055210;28;20453;-56
2022/07/09 00:16:52;;;;;;;;;;;;;;;25.35;100.00;100100.66;5054862;28;20373;-55
2022/07/09 00:19:17;;;;;;;;;;;;;;;25.44;100.00;100100.81;5051087;28;19959;-56
2022/07/09 00:21:43;;;;;;;;;;;;;;;25.51;100.00;100090.63;5053916;28;19931;-55
2022/07/09 00:24:08;;;;;;;;;;;;;;;25.48;100.00;100095.28;5055510;28;19927;-56
2022/07/09 00:26:33;;;;;;;;;;;;;;;25.55;100.00;100091.25;5055535;28;20085;-57
2022/07/09 00:28:58;;;;;;;;;;;;;;;25.50;100.00;100088.97;5054350;28;20362;-57
2022/07/09 00:31:23;;;;;;;;;;;;;;;25.55;100.00;100096.50;5056061;28;20488;-57
2022/07/09 00:33:49;;;;;;;;;;;;;;;25.61;100.00;100090.75;5056980;28;20373;-57
2022/07/09 00:36:14;;;;;;;;;;;;;;;25.61;100.00;100096.03;5055817;28;20285;-57
2022/07/09 00:38:39;;;;;;;;;;;;;;;25.59;100.00;100087.38;5055908;28;19916;-56
2022/07/09 00:41:05;;;;;;;;;;;;;;;25.55;100.00;100091.25;5055062;28;20491;-57
2022/07/09 00:43:30;;;;;;;;;;;;;;;25.58;100.00;100086.53;5055663;28;19917;-57
2022/07/09 00:45:56;;;;;;;;;;;;;;;25.71;100.00;100085.63;5055306;28;19923;-56
2022/07/09 00:48:21;;;;;;;;;;;;;;;25.70;100.00;100076.84;5056293;28;19923;-56
2022/07/09 00:50:46;;;;;;;;;;;;;;;25.66;100.00;100083.34;5056219;28;19952;-56
2022/07/09 00:53:15;;;;;;;;;;;;;;;25.77;100.00;100078.06;5056292;28;19921;-56
2022/07/09 00:55:40;;;;;;;;;;;;;;;25.88;100.00;100082.50;5054954;28;20005;-56
2022/07/09 00:58:06;;;;;;;;;;;;;;;25.70;100.00;100078.63;5056645;28;20389;-57
2022/07/09 01:00:31;;;;;;;;;;;;;;;25.78;100.00;100074.44;5053480;28;19977;-57
2022/07/09 01:02:56;;;;;;;;;;;;;;;25.71;100.00;100073.25;5054954;28;20448;-57
2022/07/09 01:05:22;;;;;;;;;;;;;;;25.71;100.00;100070.63;5056397;28;19944;-56
2022/07/09 01:07:47;;;;;;;;;;;;;;;25.84;100.00;100068.69;5056961;28;20304;-57
2022/07/09 01:10:12;;;;;;;;;;;;;;;25.86;100.00;100066.78;5055296;28;19916;-57
2022/07/09 01:12:37;;;;;;;;;;;;;;;25.79;100.00;100062.91;5054503;28;20795;-57
2022/07/09 01:15:04;;;;;;;;;;;;;;;25.66;100.00;100067.50;5055697;28;19925;-56
2022/07/09 01:17:29;;;;;;;;;;;;;;;25.82;100.00;100057.41;5056289;28;19923;-56
2022/07/09 01:19:54;;;;;;;;;;;;;;;25.80;100.00;100069.06;5054499;28;19920;-56
2022/07/09 01:22:19;;;;;;;;;;;;;;;25.81;100.00;100068.09;5056728;28;19912;-56
2022/07/09 01:24:45;;;;;;;;;;;;;;;25.80;100.00;100067.25;5056397;28;19913;-56
2022/07/09 01:27:10;;;;;;;;;;;;;;;25.76;100.00;100063.16;5054293;28;19917;-56
2022/07/09 01:29:35;;;;;;;;;;;;;;;25.78;100.00;100061.25;5055038;28;20027;-56
2022/07/09 01:32:00;;;;;;;;;;;;;;;25.79;100.00;100064.72;5056257;28;19946;-56
2022/07/09 01:34:26;;;;;;;;;;;;;;;25.84;100.00;100062.56;5055257;28;19920;-56
2022/07/09 01:36:51;;;;;;;;;;;;;;;25.65;100.00;100060.53;5055117;28;19923;-57
2022/07/09 01:39:16;;;;;;;;;;;;;;;25.72;100.00;100050.34;5055449;28;19923;-57
2022/07/09 01:41:41;;;;;;;;;;;;;;;25.48;100.00;100050.44;5055011;28;20770;-57
2022/07/09 01:44:07;;;;;;;;;;;;;;;25.60;100.00;100046.88;5055535;28;19923;-57
2022/07/09 01:46:33;;;;;;;;;;;;;;;25.09;100.00;100047.25;5056058;28;19916;-57
2022/07/09 01:48:58;;;;;;;;;;;;;;;25.36;100.00;100039.91;5053799;28;20346;-56
2022/07/09 01:51:24;;;;;;;;;;;;;;;25.52;100.00;100033.44;5055895;28;19917;-57
2022/07/09 01:53:49;;;;;;;;;;;;;;;25.32;100.00;100038.47;5055175;28;20061;-57
2022/07/09 01:56:14;;;;;;;;;;;;;;;25.33;100.00;100034.84;5053723;28;19927;-57
2022/07/09 01:58:39;;;;;;;;;;;;;;;25.39;100.00;100037.03;5054348;28;19932;-57
2022/07/09 02:01:05;;;;;;;;;;;;;;;25.16;100.00;100033.50;5055118;28;20355;-56
2022/07/09 02:03:30;;;;;;;;;;;;;;;25.39;100.00;100037.03;5055517;28;19917;-57
2022/07/09 02:05:56;;;;;;;;;;;;;;;25.44;100.00;100029.59;5055306;28;19978;-57
2022/07/09 02:08:21;;;;;;;;;;;;;;;25.38;100.00;100024.78;5054882;28;19923;-57
2022/07/09 02:10:46;;;;;;;;;;;;;;;25.30;100.00;100014.00;5053932;28;19923;-57
2022/07/09 02:13:12;;;;;;;;;;;;;;;25.33;100.00;100012.94;5054494;28;20007;-57
2022/07/09 02:15:37;;;;;;;;;;;;;;;25.05;100.00;100013.22;5054295;28;20416;-56
2022/07/09 02:18:04;;;;;;;;;;;;;;;25.32;100.00;100017.38;5055642;28;20361;-57
2022/07/09 02:20:29;;;;;;;;;;;;;;;25.01;100.00;100013.56;5054039;28;19960;-57
2022/07/09 02:22:54;;;;;;;;;;;;;;;25.20;100.00;100008.63;5055602;28;19916;-56
2022/07/09 02:25:19;;;;;;;;;;;;;;;25.12;100.00;100010.13;5054109;28;19939;-57
2022/07/09 02:27:45;;;;;;;;;;;;;;;24.57;100.00;100010.69;5054835;28;19954;-56
2022/07/09 02:30:10;;;;;;;;;;;;;;;25.10;100.00;100007.59;5053414;28;20113;-56
2022/07/09 02:32:38;;;;;;;;;;;;;;;24.99;100.00;100004.94;5055457;28;20053;-57
2022/07/09 02:35:03;;;;;;;;;;;;;;;25.09;100.00;100005.06;5054233;28;19927;-57
2022/07/09 02:37:28;;;;;;;;;;;;;;;25.13;100.00;100006.50;5055301;28;19916;-56
2022/07/09 02:39:54;;;;;;;;;;;;;;;25.10;100.00;100002.31;5053957;28;19923;-56
2022/07/09 02:42:19;;;;;;;;;;;;;;;25.16;100.00;100001.03;5054180;28;20288;-56
2022/07/09 02:44:44;;;;;;;;;;;;;;;25.06;100.00;100003.50;5054907;28;20408;-56
2022/07/09 02:47:09;;;;;;;;;;;;;;;25.05;100.00;99999.22;5055237;28;19916;-56
2022/07/09 02:49:35;;;;;;;;;;;;;;;25.20;100.00;100002.47;5054361;28;19977;-57
2022/07/09 02:52:01;;;;;;;;;;;;;;;24.97;100.00;99996.31;5055404;28;19916;-56
2022/07/09 02:54:27;;;;;;;;;;;;;;;24.92;100.00;99998.47;5053478;28;19920;-56
2022/07/09 02:56:52;;;;;;;;;;;;;;;24.95;100.00;100004.34;5055191;28;20011;-56
2022/07/09 02:59:17;;;;;;;;;;;;;;;24.82;100.00;99999.16;5053540;28;19920;-56
2022/07/09 03:01:42;;;;;;;;;;;;;;;24.85;100.00;99998.09;5055307;28;19924;-56
2022/07/09 03:04:08;;;;;;;;;;;;;;;24.39;100.00;99999.69;5054954;28;19916;-56
2022/07/09 03:06:33;;;;;;;;;;;;;;;24.88;100.00;99989.94;5054425;28;19928;-56
2022/07/09 03:08:58;;;;;;;;;;;;;;;24.95;100.00;99991.16;5053025;28;19909;-56
2022/07/09 03:11:23;;;;;;;;;;;;;;;25.00;100.00;99998.72;5054578;28;20309;-56
2022/07/09 03:13:48;;;;;;;;;;;;;;;25.11;100.00;99992.59;5054634;28;19920;-55
2022/07/09 03:16:14;;;;;;;;;;;;;;;25.05;100.00;99994.75;5054607;28;20000;-56
2022/07/09 03:18:39;;;;;;;;;;;;;;;25.09;100.00;99994.53;5054005;28;19924;-56
2022/07/09 03:21:04;;;;;;;;;;;;;;;24.60;100.00;99994.66;5057704;28;19913;-56
2022/07/09 03:23:29;;;;;;;;;;;;;;;24.27;100.00;99999.72;5058470;28;19920;-55
2022/07/09 03:25:55;;;;;;;;;;;;;;;24.54;100.00;99999.53;5058134;28;19917;-56
2022/07/09 03:28:20;;;;;;;;;;;;;;;24.30;100.00;100003.00;5057955;28;19935;-56
2022/07/09 03:30:46;;;;;;;;;;;;;;;24.28;100.00;99998.81;5057359;28;19916;-57
2022/07/09 03:33:11;;;;;;;;;;;;;;;24.09;100.00;100000.13;5058856;28;19917;-56
2022/07/09 03:35:36;;;;;;;;;;;;;;;23.83;100.00;100003.78;5057726;28;19974;-56
2022/07/09 03:38:01;;;;;;;;;;;;;;;24.06;100.00;100004.78;5056723;28;19916;-55
2022/07/09 03:40:27;;;;;;;;;;;;;;;24.18;100.00;99993.38;5057930;28;20383;-56
2022/07/09 03:42:52;;;;;;;;;;;;;;;24.17;100.00;100004.84;5056660;28;20114;-56
2022/07/09 03:45:17;;;;;;;;;;;;;;;24.27;100.00;99997.09;5058094;28;19916;-56
2022/07/09 03:47:43;;;;;;;;;;;;;;;24.44;100.00;99994.09;5057428;28;19923;-56
2022/07/09 03:50:08;;;;;;;;;;;;;;;24.80;100.00;99990.53;5057205;28;19916;-56
2022/07/09 03:52:33;;;;;;;;;;;;;;;24.89;100.00;99996.91;5056189;28;20518;-56
2022/07/09 03:54:58;;;;;;;;;;;;;;;24.75;100.00;99994.47;5055485;28;19921;-56
2022/07/09 03:57:24;;;;;;;;;;;;;;;23.97;100.00;100012.41;5056535;28;20401;-56
2022/07/09 03:59:49;;;;;;;;;;;;;;;23.57;100.00;100011.72;5056553;28;20452;-40
2022/07/09 04:02:14;;;;;;;;;;;;;;;23.28;100.00;100011.94;5055389;28;19917;-40
2022/07/09 04:04:40;;;;;;;;;;;;;;;23.38;100.00;100010.38;5056630;28;19916;-40
2022/07/09 04:07:05;;;;;;;;;;;;;;;23.04;100.00;100005.75;5056501;28;20001;-40
2022/07/09 04:09:30;;;;;;;;;;;;;;;22.62;100.00;100002.38;5055993;28;20174;-40
2022/07/09 04:11:55;;;;;;;;;;;;;;;23.07;100.00;100000.28;5056634;28;20417;-40
2022/07/09 04:14:21;;;;;;;;;;;;;;;23.65;100.00;100000.63;5057009;28;20485;-40
2022/07/09 04:16:46;;;;;;;;;;;;;;;23.47;100.00;99997.50;5056661;28;20439;-40
2022/07/09 04:19:12;;;;;;;;;;;;;;;22.94;100.00;99998.47;5056313;28;19955;-40
2022/07/09 04:21:37;;;;;;;;;;;;;;;22.59;100.00;99999.97;5056792;28;19924;-40
2022/07/09 04:24:02;;;;;;;;;;;;;;;22.95;100.00;100005.38;5056751;28;19926;-40
2022/07/09 04:26:27;;;;;;;;;;;;;;;23.24;100.00;100001.72;5056236;28;19936;-40
2022/07/09 04:28:53;;;;;;;;;;;;;;;22.93;100.00;99994.13;5056042;28;20044;-40
2022/07/09 04:31:21;;;;;;;;;;;;;;;23.61;100.00;99991.31;5056069;28;19917;-40
2022/07/09 04:33:46;;;;;;;;;;;;;;;23.84;100.00;99993.16;5056630;28;19982;-40
2022/07/09 04:36:11;;;;;;;;;;;;;;;24.11;100.00;99987.72;5055457;28;19917;-40
2022/07/09 04:38:36;;;;;;;;;;;;;;;24.70;100.00;99986.06;5056167;28;20024;-40
2022/07/09 04:41:02;;;;;;;;;;;;;;;24.67;100.00;99979.22;5055278;28;19916;-40
2022/07/09 04:43:27;;;;;;;;;;;;;;;24.61;100.00;99985.81;5054973;28;20057;-40
2022/07/09 04:45:53;;;;;;;;;;;;;;;24.54;100.00;99989.84;5055773;28;19916;-40
2022/07/09 04:48:18;;;;;;;;;;;;;;;24.81;100.00;99980.81;5056827;28;19923;-40
2022/07/09 04:50:43;;;;;;;;;;;;;;;24.84;100.00;99985.88;5055672;28;19920;-40
2022/07/09 04:53:08;;;;;;;;;;;;;;;24.56;100.00;99987.94;5056585;28;19916;-40
2022/07/09 04:55:34;;;;;;;;;;;;;;;24.46;100.00;99986.91;5056060;28;19928;-40
2022/07/09 04:57:59;;;;;;;;;;;;;;;25.00;100.00;99988.19;5056988;28;19924;-40
2022/07/09 05:00:24;;;;;;;;;;;;;;;24.59;100.00;99992.16;5055647;28;19921;-40
2022/07/09 05:02:49;;;;;;;;;;;;;;;24.56;100.00;99987.94;5056071;28;19973;-40
2022/07/09 05:05:15;;;;;;;;;;;;;;;24.81;100.00;99984.31;5055563;28;19920;-40
2022/07/09 05:07:41;;;;;;;;;;;;;;;25.19;100.00;99977.09;5055797;28;19956;-40
2022/07/09 05:10:07;;;;;;;;;;;;;;;25.19;100.00;99985.00;5055179;28;20001;-40
2022/07/09 05:12:32;;;;;;;;;;;;;;;24.75;100.00;99978.66;5055952;28;20951;-40
2022/07/09 05:14:57;;;;;;;;;;;;;;;25.21;100.00;99972.53;5055834;28;20773;-40
2022/07/09 05:17:23;;;;;;;;;;;;;;;24.87;100.00;99979.53;5056091;28;20436;-40
2022/07/09 05:19:48;;;;;;;;;;;;;;;25.18;100.00;99984.16;5055443;28;19917;-41
2022/07/09 05:22:13;;;;;;;;;;;;;;;25.24;100.00;99980.19;5055688;28;20377;-40
2022/07/09 05:24:38;;;;;;;;;;;;;;;24.80;100.00;99984.41;5055215;28;19967;-40
2022/07/09 05:27:04;;;;;;;;;;;;;;;24.89;100.00;99973.19;5055177;28;19978;-40
2022/07/09 05:29:29;;;;;;;;;;;;;;;24.97;100.00;99986.59;5054215;28;20057;-40
2022/07/09 05:31:57;;;;;;;;;;;;;;;24.28;100.00;99996.16;5054484;28;19955;-40
2022/07/09 05:34:22;;;;;;;;;;;;;;;22.53;100.00;99996.81;5054849;28;19920;-40
2022/07/09 05:36:48;;;;;;;;;;;;;;;22.86;100.00;99992.03;5055126;28;19978;-40
2022/07/09 05:39:13;;;;;;;;;;;;;;;22.18;100.00;99992.97;5053575;28;19920;-40
2022/07/09 05:41:38;;;;;;;;;;;;;;;21.95;100.00;99984.78;5054937;28;19916;-40
2022/07/09 05:44:03;;;;;;;;;;;;;;;22.31;100.00;99986.03;5054342;28;20011;-40
2022/07/09 05:46:29;;;;;;;;;;;;;;;22.69;100.00;99985.25;5055141;28;19978;-40
2022/07/09 05:48:54;;;;;;;;;;;;;;;21.43;100.00;99996.72;5054829;28;19928;-40
2022/07/09 05:51:19;;;;;;;;;;;;;;;21.94;100.00;99990.97;5054214;28;19943;-40
2022/07/09 05:53:45;;;;;;;;;;;;;;;22.53;100.00;99988.94;5054910;28;19920;-40
2022/07/09 05:56:10;;;;;;;;;;;;;;;22.60;100.00;99986.72;5054699;28;19916;-40
2022/07/09 05:58:37;;;;;;;;;;;;;;;22.06;100.00;99981.47;5054268;28;20522;-40
2022/07/09 06:01:02;;;;;;;;;;;;;;;21.97;100.00;99988.16;5054816;28;19916;-40
2022/07/09 06:03:28;;;;;;;;;;;;;;;22.45;100.00;99987.75;5055041;28;19969;-40
2022/07/09 06:05:53;;;;;;;;;;;;;;;22.65;100.00;99981.16;5054746;28;19920;-40
2022/07/09 06:08:18;;;;;;;;;;;;;;;22.80;100.00;99992.44;5055141;28;20385;-40
2022/07/09 06:10:43;;;;;;;;;;;;;;;22.46;100.00;99984.16;5053807;28;20382;-40
2022/07/09 06:13:09;;;;;;;;;;;;;;;22.66;100.00;99990.72;5054637;28;19940;-40
2022/07/09 06:15:34;;;;;;;;;;;;;;;22.54;100.00;99987.97;5052781;28;19927;-40
2022/07/09 06:17:59;;;;;;;;;;;;;;;22.89;100.00;99984.75;5054328;28;19916;-40
2022/07/09 06:20:25;;;;;;;;;;;;;;;22.48;100.00;99985.75;5053963;28;19923;-40
2022/07/09 06:22:50;;;;;;;;;;;;;;;22.23;100.00;99978.63;5053766;28;20915;-40
2022/07/09 06:25:15;;;;;;;;;;;;;;;22.47;100.00;99980.63;5053613;28;20303;-40
2022/07/09 06:27:42;;;;;;;;;;;;;;;22.40;100.00;99979.31;5054833;28;20301;-40
2022/07/09 06:30:08;;;;;;;;;;;;;;;22.70;100.00;99976.47;5053633;28;19916;-40
2022/07/09 06:32:33;;;;;;;;;;;;;;;23.36;100.00;99985.13;5054629;28;20408;-40
2022/07/09 06:34:58;;;;;;;;;;;;;;;22.76;100.00;99989.16;5053735;28;19956;-40
2022/07/09 06:37:23;;;;;;;;;;;;;;;21.93;100.00;99990.13;5054232;28;19959;-40
2022/07/09 06:39:50;;;;;;;;;;;;;;;23.25;100.00;99992.91;5053065;28;20384;-40
2022/07/09 06:42:16;;;;;;;;;;;;;;;22.91;100.00;99995.19;5047887;28;19928;-40
2022/07/09 06:44:41;;;;;;;;;;;;;;;22.32;100.00;99998.19;5053409;28;19916;-40
2022/07/09 06:47:06;;;;;;;;;;;;;;;22.69;100.00;100003.66;5052459;28;20333;-40
2022/07/09 06:49:32;;;;;;;;;;;;;;;22.89;100.00;100004.94;5052165;28;20344;-40
2022/07/09 06:51:57;;;;;;;;;;;;;;;22.69;100.00;99995.75;5052359;28;20381;-40
2022/07/09 06:54:23;;;;;;;;;;;;;;;23.80;100.00;100000.44;5051966;28;20352;-40
2022/07/09 06:56:48;;;;;;;;;;;;;;;23.37;100.00;99998.16;5057589;28;19955;-40
2022/07/09 06:59:13;;;;;;;;;;;;;;;23.65;100.00;99996.25;5056244;28;19971;-40
2022/07/09 07:01:39;;;;;;;;;;;;;;;24.06;100.00;99995.09;5057100;28;19938;-40
2022/07/09 07:04:04;;;;;;;;;;;;;;;24.78;100.00;99992.44;5057336;28;19916;-40
2022/07/09 07:06:29;;;;;;;;;;;;;;;24.26;100.00;99996.28;5056892;28;19955;-40
2022/07/09 07:08:55;;;;;;;;;;;;;;;22.77;100.00;100004.00;5055753;28;20062;-40
2022/07/09 07:11:20;;;;;;;;;;;;;;;23.11;100.00;99997.31;5056717;28;20007;-40
2022/07/09 07:13:45;;;;;;;;;;;;;;;23.61;100.00;99994.78;5057225;28;19975;-40
2022/07/09 07:16:10;;;;;;;;;;;;;;;23.50;100.00;100002.56;5057747;28;19916;-40
2022/07/09 07:18:36;;;;;;;;;;;;;;;24.07;100.00;99999.41;5055928;28;19928;-40
2022/07/09 07:21:01;;;;;;;;;;;;;;;24.09;100.00;99997.50;5055830;28;19983;-40
2022/07/09 07:23:26;;;;;;;;;;;;;;;23.43;100.00;100002.16;5056048;28;20266;-40
2022/07/09 07:25:51;;;;;;;;;;;;;;;24.40;100.00;99993.47;5057287;28;19923;-40
2022/07/09 07:28:17;;;;;;;;;;;;;;;23.03;100.00;100001.41;5056586;28;19923;-40
2022/07/09 07:30:42;;;;;;;;;;;;;;;23.78;100.00;99991.81;5056424;28;19955;-40
2022/07/09 07:33:07;;;;;;;;;;;;;;;24.05;100.00;99992.59;5056020;28;19951;-40
2022/07/09 07:35:32;;;;;;;;;;;;;;;25.03;100.00;99995.84;5055565;28;20017;-40
2022/07/09 07:37:59;;;;;;;;;;;;;;;24.99;100.00;99989.97;5056174;28;20001;-40
2022/07/09 07:40:24;;;;;;;;;;;;;;;24.35;100.00;99989.50;5056115;28;19931;-40
2022/07/09 07:42:50;;;;;;;;;;;;;;;24.09;100.00;99983.53;5056515;28;19920;-40
2022/07/09 07:45:15;;;;;;;;;;;;;;;24.45;100.00;99990.50;5056300;28;19985;-40
2022/07/09 07:47:40;;;;;;;;;;;;;;;24.22;100.00;99984.28;5056195;28;19916;-40
2022/07/09 07:50:06;;;;;;;;;;;;;;;25.17;100.00;99987.72;5055548;28;19963;-40
2022/07/09 07:52:32;;;;;;;;;;;;;;;27.31;100.00;99965.94;5056836;28;19956;-40
2022/07/09 07:54:57;;;;;;;;;;;;;;;26.14;100.00;99972.22;5055099;28;19920;-40
2022/07/09 07:57:22;;;;;;;;;;;;;;;25.84;100.00;99971.06;5055638;28;19968;-40
2022/07/09 07:59:47;;;;;;;;;;;;;;;25.73;100.00;99981.63;5056168;28;20575;-40
2022/07/09 08:02:13;;;;;;;;;;;;;;;24.45;100.00;99985.25;5055895;28;19982;-40
2022/07/09 08:04:38;;;;;;;;;;;;;;;24.82;100.00;99983.34;5055658;28;19916;-40
2022/07/09 08:07:03;;;;;;;;;;;;;;;27.01;100.00;99973.84;5055355;28;20336;-40
2022/07/09 08:09:29;;;;;;;;;;;;;;;25.27;100.00;99982.59;5055397;28;20910;-40
2022/07/09 08:11:54;;;;;;;;;;;;;;;25.20;100.00;99981.38;5057124;28;19921;-40
2022/07/09 08:14:20;;;;;;;;;;;;;;;24.78;100.00;99983.69;5056770;28;19921;-40
2022/07/09 08:16:45;;;;;;;;;;;;;;;24.30;100.00;99981.09;5056453;28;19916;-40
2022/07/09 08:19:10;;;;;;;;;;;;;;;25.38;100.00;99972.03;5056653;28;19923;-40
2022/07/09 08:21:35;;;;;;;;;;;;;;;26.54;100.00;99955.69;5056527;28;19916;-40
2022/07/09 08:24:04;;;;;;;;;;;;;;;26.92;100.00;99959.59;5056691;28;19921;-40
2022/07/09 08:26:29;;;;;;;;;;;;;;;28.48;96.97;99946.81;5056969;28;19916;-40
2022/07/09 08:28:55;;;;;;;;;;;;;;;28.88;96.42;99951.06;5056509;28;19917;-40
2022/07/09 08:31:20;;;;;;;;;;;;;;;28.33;94.08;99947.22;5055824;28;19940;-40
2022/07/09 08:33:46;;;;;;;;;;;;;;;27.43;99.46;99945.50;5056558;28;19924;-40
2022/07/09 08:36:11;;;;;;;;;;;;;;;27.98;95.75;99944.25;5056137;28;19920;-40
2022/07/09 08:38:36;;;;;;;;;;;;;;;27.74;94.53;99942.81;5057066;28;20614;-40
2022/07/09 08:41:03;;;;;;;;;;;;;;;26.51;100.00;99953.31;5055547;28;19924;-40
2022/07/09 08:43:28;;;;;;;;;;;;;;;27.05;97.72;99949.66;5056452;28;19923;-40
2022/07/09 08:45:54;;;;;;;;;;;;;;;27.06;98.96;99953.97;5055972;28;19956;-40
2022/07/09 08:48:19;;;;;;;;;;;;;;;28.08;93.53;99940.66;5054995;28;19931;-40
2022/07/09 08:50:44;;;;;;;;;;;;;;;26.37;95.23;99957.09;5054547;28;19922;-40
2022/07/09 08:53:10;;;;;;;;;;;;;;;26.97;94.87;99941.53;5054685;28;19923;-40
2022/07/09 08:55:36;;;;;;;;;;;;;;;28.08;91.40;99934.53;5055406;28;20654;-40
2022/07/09 08:58:02;;;;;;;;;;;;;;;28.71;87.46;99936.72;5055058;28;19917;-40
2022/07/09 09:00:27;;;;;;;;;;;;;;;26.39;97.54;99938.47;5055845;28;19924;-40
2022/07/09 09:02:52;;;;;;;;;;;;;;;25.97;100.00;99941.88;5056591;28;19917;-40
2022/07/09 09:05:17;;;;;;;;;;;;;;;26.64;98.84;99938.16;5056688;28;20048;-40
2022/07/09 09:07:43;;;;;;;;;;;;;;;25.29;100.00;99949.03;5056351;28;19917;-40
2022/07/09 09:10:08;;;;;;;;;;;;;;;25.75;100.00;99948.03;5055983;28;19928;-41
2022/07/09 09:12:33;;;;;;;;;;;;;;;26.10;98.44;99938.25;5056394;28;19925;-40
2022/07/09 09:14:59;;;;;;;;;;;;;;;26.50;97.80;99927.84;5055936;28;19921;-40
2022/07/09 09:17:25;;;;;;;;;;;;;;;25.63;100.00;99935.81;5056463;28;19920;-40
2022/07/09 09:19:50;;;;;;;;;;;;;;;25.61;100.00;99932.47;5055713;28;21309;-40
2022/07/09 09:22:16;;;;;;;;;;;;;;;25.95;98.82;99919.22;5056039;28;19927;-40
2022/07/09 09:24:42;;;;;;;;;;;;;;;26.96;94.18;99921.34;5056345;28;20427;-40
2022/07/09 09:27:07;;;;;;;;;;;;;;;25.69;100.00;99929.22;5056335;28;19951;-40
2022/07/09 09:29:33;;;;;;;;;;;;;;;25.69;100.00;99924.78;5054963;28;20003;-40
2022/07/09 09:32:08;;;;;;;;;;;;;;;25.92;98.61;99919.47;5055524;28;19938;-40
2022/07/09 09:34:35;;;;;;;;;;;;;;;26.29;97.04;99915.47;5055521;28;20397;-40
2022/07/09 09:37:01;;;;;;;;;;;;;;;26.61;95.55;99911.97;5054671;28;19956;-40
2022/07/09 09:39:28;;;;;;;;;;;;;;;27.15;95.31;99911.84;5054351;28;19924;-40
2022/07/09 09:41:53;;;;;;;;;;;;;;;27.21;94.66;99913.97;5054879;28;19923;-40
2022/07/09 09:44:20;;;;;;;;;;;;;;;26.50;94.60;99926.06;5055181;28;19920;-40
2022/07/09 09:46:45;;;;;;;;;;;;;;;27.21;95.14;99916.59;5055432;28;19938;-40
2022/07/09 09:49:12;;;;;;;;;;;;;;;26.82;95.24;99919.91;5054706;28;19917;-40
2022/07/09 09:51:47;;;;;;;;;;;;;;;27.77;90.10;99902.00;5054945;28;19927;-40
2022/07/09 09:54:13;;;;;;;;;;;;;;;27.59;89.10;99909.75;5054714;28;20581;-40
2022/07/09 09:56:38;;;;;;;;;;;;;;;25.91;94.53;99912.50;5055165;28;19916;-40
2022/07/09 09:59:04;;;;;;;;;;;;;;;26.13;94.80;99909.78;5055193;28;19924;-40
2022/07/09 10:01:29;;;;;;;;;;;;;;;26.85;90.03;99908.22;5053500;28;19974;-40
2022/07/09 10:03:57;;;;;;;;;;;;;;;26.97;92.52;99895.75;5052668;28;20240;-40
2022/07/09 10:06:22;;;;;;;;;;;;;;;27.22;92.88;99899.78;5053824;28;20755;-40
2022/07/09 10:08:47;;;;;;;;;;;;;;;26.72;93.51;99903.13;5053755;28;19912;-40
2022/07/09 10:11:13;;;;;;;;;;;;;;;26.96;89.99;99894.94;5053068;28;20756;-40
2022/07/09 10:13:48;;;;;;;;;;;;;;;26.68;92.56;99889.34;5055267;28;20466;-40
2022/07/09 10:16:14;;;;;;;;;;;;;;;26.07;95.57;99897.94;5055056;28;19917;-40
2022/07/09 10:18:49;;;;;;;;;;;;;;;25.12;97.70;99904.69;5054813;28;19979;-40
2022/07/09 10:21:14;;;;;;;;;;;;;;;24.56;100.00;99908.94;5054315;28;19946;-40
2022/07/09 10:23:48;;;;;;;;;;;;;;;25.57;99.81;99900.22;5054903;28;19917;-40
2022/07/09 10:26:13;;;;;;;;;;;;;;;25.24;100.00;99903.75;5054548;28;19916;-40
2022/07/09 10:28:41;;;;;;;;;;;;;;;25.00;100.00;99902.03;5052796;28;19939;-40
2022/07/09 10:31:07;;;;;;;;;;;;;;;25.37;100.00;99893.91;5053862;28;19938;-40
2022/07/09 10:33:35;;;;;;;;;;;;;;;26.46;96.54;99884.19;5054109;28;19916;-40
2022/07/09 10:36:11;;;;;;;;;;;;;;;27.02;92.75;99877.69;5054347;28;19917;-40
2022/07/09 10:38:38;;;;;;;;;;;;;;;26.40;95.21;99888.16;5054571;28;19923;-40
2022/07/09 10:41:03;;;;;;;;;;;;;;;26.46;97.10;99881.56;5052345;28;20339;-40
2022/07/09 10:43:45;;;;;;;;;;;;;;;25.76;99.54;99883.75;5054386;28;19917;-40
2022/07/09 10:46:11;;;;;;;;;;;;;;;26.13;96.74;99875.47;5053512;28;19927;-40
2022/07/09 10:48:37;;;;;;;;;;;;;;;26.61;95.80;99874.97;5054728;28;19935;-40
2022/07/09 10:51:02;;;;;;;;;;;;;;;28.00;89.29;99870.81;5053845;28;19924;-40
2022/07/09 10:53:28;;;;;;;;;;;;;;;26.42;93.45;99874.84;5054520;28;19917;-40
2022/07/09 10:55:53;;;;;;;;;;;;;;;27.16;93.88;99868.53;5054224;28;19955;-40
2022/07/09 10:58:19;;;;;;;;;;;;;;;25.70;98.12;99878.13;5052583;28;20137;-40
2022/07/09 11:00:44;;;;;;;;;;;;;;;26.16;97.66;99861.16;5053172;28;20003;-40
2022/07/09 11:03:09;;;;;;;;;;;;;;;25.62;98.04;99865.56;5054746;28;19917;-40
2022/07/09 11:05:43;;;;;;;;;;;;;;;25.75;99.16;99866.25;5053344;28;19969;-40
2022/07/09 11:08:08;;;;;;;;;;;;;;;25.57;100.00;99873.03;5053706;28;19924;-40
2022/07/09 11:10:37;;;;;;;;;;;;;;;26.83;95.07;99860.78;5051707;28;19920;-40
2022/07/09 11:13:03;;;;;;;;;;;;;;;25.95;95.32;99862.00;5055402;28;19916;-40
2022/07/09 11:15:29;;;;;;;;;;;;;;;26.18;98.28;99859.25;5054553;28;19943;-40
2022/07/09 11:18:04;;;;;;;;;;;;;;;26.49;95.66;99849.59;5053672;28;19946;-40
2022/07/09 11:20:31;;;;;;;;;;;;;;;27.17;94.54;99841.97;5053130;28;19939;-40
2022/07/09 11:22:56;;;;;;;;;;;;;;;26.69;92.67;99847.91;5053627;28;19916;-40
2022/07/09 11:25:22;;;;;;;;;;;;;;;27.10;91.89;99844.31;5053446;28;20095;-40
2022/07/09 11:27:47;;;;;;;;;;;;;;;27.42;94.10;99835.38;5052668;28;20133;-40
2022/07/09 11:30:14;;;;;;;;;;;;;;;27.25;91.50;99833.38;5054948;28;19917;-40
2022/07/09 11:32:39;;;;;;;;;;;;;;;25.87;94.14;99843.31;5054226;28;19920;-41
2022/07/09 11:35:05;;;;;;;;;;;;;;;25.63;96.14;99846.13;5054404;28;20921;-40
2022/07/09 11:37:30;;;;;;;;;;;;;;;26.31;95.13;99832.66;5053826;28;20309;-40
2022/07/09 11:39:55;;;;;;;;;;;;;;;28.36;87.37;99814.44;5053710;28;19916;-40
2022/07/09 11:42:21;;;;;;;;;;;;;;;29.91;81.52;99806.66;5058223;28;19962;-40
2022/07/09 11:44:53;;;;;;;;;;;;;;;30.44;78.80;99805.69;5057349;28;20337;-41
2022/07/09 11:47:22;;;;;;;;;;;;;;;28.09;83.79;99819.66;5057837;28;19916;-40
2022/07/09 11:49:49;;;;;;;;;;;;;;;29.67;82.50;99806.41;5057680;28;19923;-40
2022/07/09 11:52:22;;;;;;;;;;;;;;;29.42;80.05;99808.81;5057415;28;20393;-40
2022/07/09 11:54:54;;;;;;;;;;;;;;;30.49;74.55;99801.72;5055270;28;19928;-40
2022/07/09 11:57:20;;;;;;;;;;;;;;;29.00;83.60;99804.03;5056632;28;19924;-40
2022/07/09 11:59:45;;;;;;;;;;;;;;;30.34;77.81;99790.88;5057407;28;20296;-40
2022/07/09 12:02:10;;;;;;;;;;;;;;;29.75;82.18;99782.63;5057841;28;19912;-40
2022/07/09 12:04:36;;;;;;;;;;;;;;;30.05;78.66;99784.00;5054272;28;20554;-40
2022/07/09 12:07:01;;;;;;;;;;;;;;;29.46;75.61;99782.81;5057381;28;20369;-40
2022/07/09 12:09:30;;;;;;;;;;;;;;;31.48;68.65;99779.00;5057242;28;19917;-40
2022/07/09 12:11:55;;;;;;;;;;;;;;;30.05;74.59;99784.00;5057506;28;19951;-40
2022/07/09 12:14:21;;;;;;;;;;;;;;;27.36;81.93;99790.94;5057157;28;20035;-40
2022/07/09 12:16:46;;;;;;;;;;;;;;;27.54;84.62;99797.22;5056518;28;20020;-40
2022/07/09 12:19:11;;;;;;;;;;;;;;;27.57;84.06;99792.63;5055786;28;19916;-40
2022/07/09 12:21:36;;;;;;;;;;;;;;;26.16;90.33;99803.94;5056649;28;19920;-40
2022/07/09 12:24:01;;;;;;;;;;;;;;;26.24;90.18;99793.56;5056603;28;19923;-40
2022/07/09 12:26:27;;;;;;;;;;;;;;;26.72;88.91;99788.69;5057511;28;20450;-40
2022/07/09 12:28:52;;;;;;;;;;;;;;;26.12;91.10;99794.59;5056110;28;19917;-40